This is the latest recevied weather packets stored in our database for station/object F4CYQ-10. If no packets are shown the sender has not sent any weather packets the latest 10 day(s).
| Time | Temp. | Humidity | Pressure | Rain* | Wind** | Luminosity | Snow |
|---|---|---|---|---|---|---|---|
| 1778027069 | 16.67° C | 57% | 1014.7 hPa | - | - | - | - |
| 1778026831 | 16.67° C | 57% | 1014.7 hPa | - | - | - | - |
| 1778025931 | 16.67° C | 57% | 1014.9 hPa | - | - | - | - |
| 1778025210 | 17.78° C | 57% | 1015 hPa | - | - | - | - |
| 1778025030 | 16.67° C | 57% | 1014.9 hPa | - | - | - | - |
| 1778024129 | 17.78° C | 57% | 1015 hPa | - | - | - | - |
| 1778023620 | 16.67° C | 57% | 1015 hPa | - | - | - | - |
| 1778022719 | 16.67° C | 57% | 1015 hPa | - | - | - | - |
| 1778021818 | 17.22° C | 57% | 1015.2 hPa | - | - | - | - |
| 1778021691 | -5° C | 100% | 4.8 hPa | - | - | - | - |
| 1778020917 | -5° C | 100% | 4.8 hPa | - | - | - | - |
| 1778020208 | 17.22° C | 56% | 1015 hPa | - | - | - | - |
| 1778019307 | 17.22° C | 56% | 1015 hPa | - | - | - | - |
| 1778018406 | 17.22° C | 57% | 1015.1 hPa | - | - | - | - |
| 1778018188 | 17.78° C | 57% | 1015.1 hPa | - | - | - | - |
| 1778017505 | 17.78° C | 57% | 1015.1 hPa | - | - | - | - |
| 1778016921 | 17.22° C | 56% | 1015.2 hPa | - | - | - | - |
| 1778016020 | 17.22° C | 56% | 1015.1 hPa | - | - | - | - |
| 1778015290 | 18.89° C | 56% | 1015.4 hPa | - | - | - | - |
| 1778015119 | 17.22° C | 56% | 1015.3 hPa | - | - | - | - |
| 1778014217 | 18.89° C | 56% | 1015.4 hPa | - | - | - | - |
| 1778013769 | 17.22° C | 56% | 1015.3 hPa | - | - | - | - |
| 1778012869 | 17.78° C | 56% | 1015.2 hPa | - | - | - | - |
| 1778011968 | 17.22° C | 57% | 1015.1 hPa | - | - | - | - |
| 1778011066 | 18.33° C | 57% | 1014.9 hPa | - | - | - | - |
* Rain since midnight (hover to see other rain measurements)
** Current wind speed in m/s (hover to see current wind gust speed)